Canton, NY (13617)

6:50 AM EST on February 09, 2016 (GMT -0500)
Martin Tract | | Change Station
CLOSE
Current Station
Personal Weather Station
Location: Canton, NY
Elevation: 407 ft
Nearby Weather Stations

Elev 407 ft 44.60 °N, 75.18 °W | Updated 6 minutes ago

Snow
Snow
16.6 °F
Feels Like 10 °F
N
4.0
Wind Variable Wind from NNE
Gusts 6.0 mph

Today
High -- | Low -- °F
--% Chance of Precip.
Yesterday
High -- | Low -- °F
Precip. -- in
Pressure 29.73 in
Visibility 6.0 miles
Clouds Overcast 4700 ft
Windchill 10 °F
Dew Point 14 °F
Humidity 88%
Rainfall 0.00 in
Snow Depth Not available.
7:09 AM 5:20 PM
New Moon, 1% visible
METAR KMSS 091053Z AUTO 06012KT 6SM -SN OVC047 M08/M11 A2971 RMK AO2 SLP067 P0000 T10781111
Pressure 29.73 in
Visibility 6.0 miles
Clouds Overcast 4700 ft
Windchill 10 °F
Dew Point 14 °F
Humidity 88%
Rainfall 0.00 in
Snow Depth Not available.
7:09 AM 5:20 PM
New Moon, 1% visible
METAR KMSS 091053Z AUTO 06012KT 6SM -SN OVC047 M08/M11 A2971 RMK AO2 SLP067 P0000 T10781111

10-Day Weather Forecast

Almanac

Astronomy

Feb. 09, 2016 Rise Set
Actual Time
Civil Twilight
Nautical Twilight
Astronomical Twilight
Moon
Length of Visible Light
Length of Day
Tomorrow will be .
, % of the Moon is Illuminated

Today's Extremes

State Highs State Lows

Community

WunderPhotos

Upload Photos

1,891,565 photos uploaded!

WunderBlog® & News

Nearby

Air Quality

  Air Quality AQ Index Pollutant
Not available.

Snow Depth

Station Depth Elevation

Earthquake Activity

City Distance Mag. Time & Date
Minimum magnitude displayed is 2.5.

Coastal Water Temperatures

Place Temperature

Stations

Nearby Weather Stations

Station Location Temp. Windchill Dew Point Humidity Wind Precip. Elev Updated Type
                   

Watches & Warnings

There are currently no watches in effect.